Time;durP1;ratioP1;P1;durP2;ratioP2;P2;SDS_P1;SDS_P2;PMS_P1;PMS_P2;Temp;Humidity;BMP_temperature;BMP_pressure;BME280_temperature;BME280_humidity;BME280_pressure;Samples;Min_cycle;Max_cycle;Signal;HPM_P1;HPM_P2
2023/11/01 00:00:20;;;;;;;4.15;1.40;;;;;;;13.00;89.96;99396.91;10195127;28;20134;-59
2023/11/01 00:05:21;;;;;;;4.22;1.17;;;;;;;12.99;90.20;99400.59;10198098;28;20122;-59
2023/11/01 00:10:23;;;;;;;4.07;1.58;;;;;;;12.98;90.27;99399.75;10206104;28;20066;-59
2023/11/01 00:15:25;;;;;;;3.38;1.35;;;;;;;12.92;90.77;99395.03;10186065;28;20054;-58
2023/11/01 00:20:26;;;;;;;4.45;1.30;;;;;;;12.91;91.19;99398.72;10180840;28;20075;-58
2023/11/01 00:25:28;;;;;;;2.22;1.17;;;;;;;12.87;91.56;99392.03;10206019;28;20238;-59
2023/11/01 00:30:30;;;;;;;2.55;1.10;;;;;;;12.91;91.63;99394.22;10201511;28;20106;-59
2023/11/01 00:35:31;;;;;;;5.60;1.48;;;;;;;12.90;91.96;99387.19;10202893;28;20505;-59
2023/11/01 00:40:33;;;;;;;2.20;1.17;;;;;;;12.94;91.92;99386.88;10204965;28;20070;-58
2023/11/01 00:45:35;;;;;;;4.18;1.30;;;;;;;12.83;92.05;99371.97;10200582;28;20144;-59
2023/11/01 00:50:36;;;;;;;3.45;1.33;;;;;;;12.91;93.08;99380.88;10201052;28;20063;-61
2023/11/01 00:55:38;;;;;;;3.90;0.95;;;;;;;12.90;93.53;99383.69;10187486;28;20051;-60
2023/11/01 01:00:40;;;;;;;4.88;1.33;;;;;;;12.90;93.84;99370.34;10203318;28;20078;-59
2023/11/01 01:05:41;;;;;;;3.17;1.42;;;;;;;12.83;93.88;99370.13;10176454;28;20512;-59
2023/11/01 01:10:43;;;;;;;5.40;1.30;;;;;;;12.91;94.39;99375.53;10197282;28;20086;-58
2023/11/01 01:15:44;;;;;;;3.05;1.40;;;;;;;12.95;94.56;99377.88;10200449;28;20172;-59
2023/11/01 01:20:47;;;;;;;4.63;0.90;;;;;;;12.97;94.70;99375.88;10211089;28;20047;-59
2023/11/01 01:25:49;;;;;;;4.35;1.10;;;;;;;12.97;94.90;99360.69;10202901;28;20058;-59
2023/11/01 01:30:51;;;;;;;2.70;0.90;;;;;;;12.98;95.16;99367.69;10201059;28;20058;-59
2023/11/01 01:35:53;;;;;;;2.65;0.90;;;;;;;12.79;95.87;99339.41;10200426;28;20103;-59
2023/11/01 01:40:54;;;;;;;3.80;1.10;;;;;;;12.87;96.16;99343.97;10201525;28;20047;-59
2023/11/01 01:46:09;;;;;;;1.95;0.80;;;;;;;12.90;96.32;99347.13;10201680;28;20066;-60
2023/11/01 01:51:11;;;;;;;3.00;0.98;;;;;;;12.83;96.52;99327.41;10201454;28;20046;-58
2023/11/01 01:56:14;;;;;;;3.95;1.23;;;;;;;12.88;96.64;99330.44;10186541;28;20144;-59
2023/11/01 02:01:18;;;;;;;5.32;1.08;;;;;;;12.89;97.17;99325.94;10196950;28;20049;-59
2023/11/01 02:06:20;;;;;;;3.55;1.00;;;;;;;12.93;97.61;99331.81;10183510;28;20051;-59
2023/11/01 02:11:22;;;;;;;2.63;1.13;;;;;;;12.85;97.55;99314.75;10182699;28;20636;-59
2023/11/01 02:16:23;;;;;;;5.18;1.63;;;;;;;12.86;97.84;99316.38;10199957;28;20074;-59
2023/11/01 02:21:25;;;;;;;1.50;0.95;;;;;;;12.91;98.07;99321.28;10191297;28;20055;-59
2023/11/01 02:26:27;;;;;;;2.25;1.02;;;;;;;12.97;97.85;99309.94;10198865;28;20047;-59
2023/11/01 02:31:29;;;;;;;3.55;1.00;;;;;;;12.96;97.81;99299.41;10192256;28;20138;-59
2023/11/01 02:36:30;;;;;;;4.57;1.52;;;;;;;12.95;98.49;99308.44;10202858;28;20090;-59
2023/11/01 02:41:32;;;;;;;2.00;0.75;;;;;;;12.88;98.48;99285.03;10200132;28;20496;-60
2023/11/01 02:46:34;;;;;;;4.32;1.23;;;;;;;12.94;99.23;99296.06;10200955;28;20058;-59
2023/11/01 02:51:35;;;;;;;3.25;1.38;;;;;;;12.91;99.58;99297.25;10180792;28;20767;-59
2023/11/01 02:56:37;;;;;;;1.92;1.08;;;;;;;12.80;99.99;99276.16;10200571;28;20674;-58
2023/11/01 03:01:39;;;;;;;1.70;0.80;;;;;;;12.85;100.00;99287.19;10194983;28;20055;-59
2023/11/01 03:06:40;;;;;;;2.53;0.98;;;;;;;12.80;100.00;99282.31;10201550;28;20081;-58
2023/11/01 03:11:42;;;;;;;4.15;1.30;;;;;;;12.82;100.00;99274.16;10195377;28;20147;-58
2023/11/01 03:16:43;;;;;;;2.00;0.98;;;;;;;12.80;100.00;99257.47;10200852;28;20138;-59
2023/11/01 03:21:45;;;;;;;3.13;1.27;;;;;;;12.90;100.00;99269.66;10201302;28;20046;-59
2023/11/01 03:26:47;;;;;;;3.35;1.17;;;;;;;12.93;100.00;99271.19;10188370;28;20066;-59
2023/11/01 03:31:48;;;;;;;2.58;0.90;;;;;;;12.93;100.00;99267.69;10196263;28;20596;-59
2023/11/01 03:36:50;;;;;;;3.03;1.65;;;;;;;12.92;100.00;99258.81;10196639;28;20063;-60
2023/11/01 03:41:52;;;;;;;3.88;1.10;;;;;;;12.95;100.00;99258.50;10198918;28;20073;-59
2023/11/01 03:46:53;;;;;;;2.75;1.50;;;;;;;12.97;100.00;99253.84;10199122;28;20054;-60
2023/11/01 03:51:57;;;;;;;3.17;1.00;;;;;;;12.88;100.00;99234.28;10192771;28;20222;-59
2023/11/01 03:56:59;;;;;;;2.90;1.43;;;;;;;12.98;100.00;99238.66;10178329;28;20061;-59
2023/11/01 04:02:02;;;;;;;4.22;1.30;;;;;;;12.98;100.00;99236.81;10195832;28;20550;-58
2023/11/01 04:07:03;;;;;;;5.30;1.63;;;;;;;12.91;100.00;99223.28;10184613;28;20052;-58
2023/11/01 04:12:06;;;;;;;3.78;0.90;;;;;;;12.92;100.00;99224.09;10196425;28;20102;-58
2023/11/01 04:17:09;;;;;;;3.38;0.73;;;;;;;12.95;100.00;99223.78;10188992;28;20682;-60
2023/11/01 04:22:10;;;;;;;3.80;1.35;;;;;;;12.91;100.00;99217.13;10192193;28;20507;-60
2023/11/01 04:27:12;;;;;;;3.92;1.42;;;;;;;12.77;100.00;99193.69;10190392;28;20090;-61
2023/11/01 04:32:14;;;;;;;5.68;1.40;;;;;;;12.81;100.00;99211.06;10192209;28;20055;-59
2023/11/01 04:37:16;;;;;;;5.07;1.05;;;;;;;12.82;100.00;99191.38;10191131;28;20090;-59
2023/11/01 04:42:18;;;;;;;6.40;1.50;;;;;;;12.88;100.00;99201.38;10194164;28;20633;-59
2023/11/01 04:47:19;;;;;;;3.70;1.63;;;;;;;12.91;100.00;99203.75;10176728;28;20697;-59
2023/11/01 04:52:21;;;;;;;3.70;1.20;;;;;;;12.79;100.00;99187.22;10192188;28;20186;-59
2023/11/01 04:57:23;;;;;;;4.35;1.17;;;;;;;12.89;100.00;99195.06;10199509;28;20138;-60
2023/11/01 05:02:25;;;;;;;3.58;0.80;;;;;;;12.85;100.00;99181.22;10184341;28;20413;-60
2023/11/01 05:07:26;;;;;;;5.65;1.33;;;;;;;12.93;100.00;99187.56;10167574;28;20134;-59
2023/11/01 05:12:28;;;;;;;3.65;1.00;;;;;;;12.84;100.00;99173.34;10197105;28;20810;-60
2023/11/01 05:17:30;;;;;;;4.90;1.60;;;;;;;12.94;100.00;99174.03;10193793;28;20138;-59
2023/11/01 05:22:31;;;;;;;4.15;1.23;;;;;;;12.88;100.00;99169.34;10199774;28;20054;-58
2023/11/01 05:27:33;;;;;;;2.63;1.00;;;;;;;12.93;100.00;99182.22;10170387;28;20201;-58
2023/11/01 05:32:34;;;;;;;5.10;1.23;;;;;;;12.95;99.93;99177.53;10195028;28;20144;-58
2023/11/01 05:37:36;;;;;;;1.38;0.80;;;;;;;13.00;99.68;99181.41;10192730;28;20051;-59
2023/11/01 05:42:38;;;;;;;4.60;1.67;;;;;;;12.91;99.47;99169.84;10180379;28;20260;-58
2023/11/01 05:47:39;;;;;;;4.35;1.50;;;;;;;12.89;99.17;99171.84;10198092;28;20544;-62
2023/11/01 05:52:41;;;;;;;5.68;1.17;;;;;;;12.99;99.47;99184.22;10197547;28;20062;-59
2023/11/01 05:57:45;;;;;;;4.35;1.15;;;;;;;13.05;98.76;99197.75;10179500;28;20123;-59
2023/11/01 06:02:47;;;;;;;3.65;0.98;;;;;;;12.97;98.40;99179.06;10168640;28;20560;-58
2023/11/01 06:07:51;;;;;;;4.30;1.20;;;;;;;12.89;97.69;99171.00;10151005;28;20074;-58
2023/11/01 06:12:53;;;;;;;3.00;1.48;;;;;;;12.99;98.28;99181.56;10173200;28;20090;-58
2023/11/01 06:17:56;;;;;;;3.95;1.02;;;;;;;13.04;97.56;99185.38;10157697;28;20164;-57
2023/11/01 06:22:59;;;;;;;3.17;1.08;;;;;;;12.95;97.39;99170.34;10178819;28;20047;-59
2023/11/01 06:28:00;;;;;;;4.90;1.23;;;;;;;12.89;97.40;99171.00;10174614;28;20062;-59
2023/11/01 06:33:02;;;;;;;6.10;2.10;;;;;;;12.93;97.42;99153.66;10164044;28;20110;-59
2023/11/01 06:38:04;;;;;;;4.47;1.75;;;;;;;12.99;97.14;99173.53;10164232;28;20055;-58
2023/11/01 06:43:07;;;;;;;4.50;1.55;;;;;;;13.01;96.93;99168.88;10169594;28;20055;-59
2023/11/01 06:48:09;;;;;;;5.20;1.50;;;;;;;13.06;96.88;99166.50;10176989;28;20066;-61
2023/11/01 06:53:11;;;;;;;5.60;1.20;;;;;;;13.05;96.46;99171.03;10166258;28;20055;-71
2023/11/01 06:58:13;;;;;;;4.53;1.20;;;;;;;13.02;96.06;99166.03;10164027;28;20206;-61
2023/11/01 07:03:14;;;;;;;4.75;1.25;;;;;;;13.05;95.54;99170.22;10176039;28;20051;-62
2023/11/01 07:08:16;;;;;;;8.70;1.92;;;;;;;13.03;95.45;99173.03;10164067;28;20062;-59
2023/11/01 07:13:18;;;;;;;3.75;1.13;;;;;;;13.11;95.49;99174.88;10170568;28;20078;-57
2023/11/01 07:18:19;;;;;;;5.03;1.42;;;;;;;13.14;95.16;99160.38;10153398;28;20573;-59
2023/11/01 07:23:21;;;;;;;4.15;1.27;;;;;;;13.23;94.51;99175.41;10174856;28;20384;-59
2023/11/01 07:28:22;;;;;;;6.13;1.73;;;;;;;13.23;95.19;99167.38;10165204;28;20071;-60
2023/11/01 07:33:24;;;;;;;6.63;1.70;;;;;;;13.32;94.75;99179.72;10164605;28;20051;-59
2023/11/01 07:38:25;;;;;;;5.32;1.95;;;;;;;13.27;94.22;99179.41;10167806;28;20101;-58
2023/11/01 07:43:27;;;;;;;7.13;1.40;;;;;;;13.28;94.31;99181.06;10170495;28;20168;-58
2023/11/01 07:48:28;;;;;;;3.88;1.27;;;;;;;13.35;93.56;99184.78;10171096;28;20051;-58
2023/11/01 07:53:30;;;;;;;8.80;1.25;;;;;;;13.31;93.04;99167.34;10168672;28;20062;-59
2023/11/01 07:58:32;;;;;;;8.00;1.45;;;;;;;13.39;92.93;99177.25;10167511;28;20055;-59
2023/11/01 08:03:35;;;;;;;5.50;1.10;;;;;;;13.43;91.94;99181.25;10157888;28;20066;-59
2023/11/01 08:08:37;;;;;;;5.85;1.83;;;;;;;13.46;92.22;99167.56;10174624;28;20505;-60
2023/11/01 08:13:40;;;;;;;4.93;1.02;;;;;;;13.50;91.64;99173.41;10157616;28;20066;-57
2023/11/01 08:18:41;;;;;;;6.00;1.63;;;;;;;13.44;91.44;99148.19;10168091;28;20067;-60
2023/11/01 08:23:44;;;;;;;5.55;1.40;;;;;;;13.50;90.85;99170.75;10151797;28;20478;-60
2023/11/01 08:28:46;;;;;;;7.47;1.30;;;;;;;13.56;90.63;99180.75;10187057;28;20058;-61
2023/11/01 08:33:48;;;;;;;3.33;1.10;;;;;;;13.59;89.80;99172.41;10180404;28;20093;-65
2023/11/01 08:38:50;;;;;;;5.05;1.20;;;;;;;13.68;89.89;99173.22;10194989;28;20082;-61
2023/11/01 08:43:53;;;;;;;3.72;1.00;;;;;;;13.84;88.82;99164.31;10195409;28;20154;-58
2023/11/01 08:48:55;;;;;;;5.60;1.60;;;;;;;13.89;87.80;99145.91;10171445;28;20239;-63
2023/11/01 08:54:00;;;;;;;5.32;1.15;;;;;;;14.00;86.42;99152.72;10175988;28;20055;-63
2023/11/01 08:59:05;;;;;;;5.90;1.63;;;;;;;14.05;86.78;99156.56;10166367;28;20513;-65
2023/11/01 09:04:07;;;;;;;6.07;1.20;;;;;;;14.13;84.58;99140.47;10171861;28;20074;-63
2023/11/01 09:09:09;;;;;;;7.25;1.05;;;;;;;14.57;82.41;99154.31;10177614;28;20082;-63
2023/11/01 09:14:11;;;;;;;3.97;1.15;;;;;;;14.81;82.01;99167.56;10174729;28;20051;-65
2023/11/01 09:19:12;;;;;;;4.60;1.20;;;;;;;14.93;79.90;99165.31;10171599;28;20059;-63
2023/11/01 09:24:15;;;;;;;5.10;1.42;;;;;;;14.78;80.54;99146.50;10176590;28;20153;-61
2023/11/01 09:29:17;;;;;;;5.50;1.17;;;;;;;14.94;79.62;99160.81;10166381;28;20062;-63
2023/11/01 09:34:19;;;;;;;5.22;1.10;;;;;;;15.06;78.96;99164.75;10171813;28;20709;-63
2023/11/01 09:39:21;;;;;;;4.10;1.27;;;;;;;14.96;78.43;99172.19;10159539;28;20170;-63
2023/11/01 09:44:27;;;;;;;5.88;1.30;;;;;;;14.71;79.71;99188.38;10174404;28;20063;-63
2023/11/01 09:49:31;;;;;;;4.72;1.10;;;;;;;14.50;79.80;99175.59;10144550;28;20066;-59
2023/11/01 09:54:32;;;;;;;5.18;1.00;;;;;;;14.42;79.91;99157.72;10175126;28;20047;-59
2023/11/01 09:59:34;;;;;;;6.10;1.40;;;;;;;14.82;78.75;99171.09;10148775;28;21060;-57
2023/11/01 10:04:38;;;;;;;11.27;2.20;;;;;;;15.16;76.61;99170.69;10169932;28;20427;-58
2023/11/01 10:09:41;;;;;;;3.72;1.00;;;;;;;15.41;76.11;99162.44;10148807;28;20075;-61
2023/11/01 10:14:43;;;;;;;6.00;0.95;;;;;;;15.82;74.04;99164.75;10164338;28;20059;-59
2023/11/01 10:19:46;;;;;;;4.70;1.00;;;;;;;15.95;72.57;99142.63;10159989;28;20532;-59
2023/11/01 10:24:50;;;;;;;4.93;1.10;;;;;;;16.22;71.50;99145.66;10158681;28;20082;-59
2023/11/01 10:30:00;;;;;;;5.40;1.08;;;;;;;16.12;72.03;99127.16;10158720;28;21470;-59
2023/11/01 10:35:10;;;;;;;4.97;0.85;;;;;;;16.16;71.11;99127.63;10155643;28;20098;-60
2023/11/01 10:40:12;;;;;;;2.38;0.88;;;;;;;15.97;70.02;99139.75;10173726;28;20071;-57
2023/11/01 10:45:13;;;;;;;4.90;1.02;;;;;;;15.74;72.26;99129.91;10141222;28;20463;-59
2023/11/01 10:50:15;;;;;;;4.97;1.38;;;;;;;15.60;73.03;99126.22;10119839;28;20047;-58
2023/11/01 10:55:21;;;;;;;6.88;1.40;;;;;;;15.50;73.20;99113.06;10156797;28;20232;-58
2023/11/01 11:00:37;;;;;;;5.68;1.50;;;;;;;15.36;73.05;99087.06;10184743;28;20059;-57
2023/11/01 11:05:40;;;;;;;4.78;1.25;;;;;;;15.60;73.51;99090.50;10163276;28;20138;-58
2023/11/01 11:10:43;;;;;;;4.50;0.70;;;;;;;15.68;69.54;99066.28;10156816;28;20630;-59
2023/11/01 11:15:48;;;;;;;2.03;0.80;;;;;;;15.86;67.99;99069.44;10152691;28;21859;-58
2023/11/01 11:20:58;;;;;;;4.00;1.00;;;;;;;15.98;66.77;99071.66;10157400;28;20153;-58
2023/11/01 11:26:03;;;;;;;3.47;0.63;;;;;;;15.97;65.15;99060.06;10174351;28;20058;-59
2023/11/01 11:31:20;;;;;;;4.90;0.88;;;;;;;16.52;62.56;99054.28;10174767;28;20059;-59
2023/11/01 11:36:24;;;;;;;2.67;0.82;;;;;;;16.94;61.52;99052.63;10169153;28;20055;-58
2023/11/01 11:41:47;;;;;;;2.42;0.77;;;;;;;17.03;61.25;99042.56;10166327;28;20047;-59
2023/11/01 11:46:50;;;;;;;1.55;0.68;;;;;;;16.79;60.16;99032.00;10157447;28;20054;-57
2023/11/01 11:51:57;;;;;;;1.55;0.35;;;;;;;16.44;59.50;99029.22;10165570;28;20209;-58
2023/11/01 11:57:05;;;;;;;1.10;0.45;;;;;;;16.32;60.15;99011.09;10172623;28;20290;-57
2023/11/01 12:02:10;;;;;;;1.33;0.50;;;;;;;16.29;60.33;99006.13;10160610;28;20133;-59
2023/11/01 12:07:21;;;;;;;;;;;;;;;16.24;60.14;99002.16;10169044;28;20049;-59
2023/11/01 12:12:24;;;;;;;2.15;0.50;;;;;;;16.27;60.09;98990.19;10172122;28;19931;-58
2023/11/01 12:17:29;;;;;;;2.10;0.50;;;;;;;16.36;60.79;98972.97;10179099;23;20062;-59
2023/11/01 12:22:36;;;;;;;2.17;0.50;;;;;;;17.39;57.32;98979.72;10211107;28;20160;-58
2023/11/01 12:27:40;;;;;;;0.90;0.30;;;;;;;18.42;55.94;98949.19;10217090;28;20163;-58
2023/11/01 12:32:42;;;;;;;3.13;0.55;;;;;;;19.04;51.65;98947.94;10193183;28;20125;-58
2023/11/01 12:37:45;;;;;;;1.77;0.40;;;;;;;18.99;52.13;98947.75;10177420;28;20973;-58
2023/11/01 12:42:51;;;;;;;1.90;0.57;;;;;;;19.04;51.16;98939.03;10210839;28;20065;-59
2023/11/01 12:47:53;;;;;;;2.55;0.38;;;;;;;18.81;52.80;98929.50;10186490;28;20054;-58
2023/11/01 12:52:55;;;;;;;1.48;0.47;;;;;;;19.61;49.83;98920.38;10195657;28;20651;-57
2023/11/01 12:57:59;;;;;;;2.20;0.35;;;;;;;20.01;49.22;98903.97;10204275;28;20059;-58
2023/11/01 13:03:03;;;;;;;1.55;0.32;;;;;;;18.97;50.70;98903.16;10209587;28;20059;-59
2023/11/01 13:08:06;;;;;;;1.33;0.45;;;;;;;18.09;52.73;98896.97;10208446;28;20141;-59
2023/11/01 13:13:09;;;;;;;3.17;0.50;;;;;;;17.42;54.29;98901.31;10192201;28;20110;-58
2023/11/01 13:18:10;;;;;;;5.22;1.05;;;;;;;17.00;55.93;98898.63;10208868;28;20198;-58
2023/11/01 13:23:12;;;;;;;2.45;0.85;;;;;;;16.85;57.72;98887.97;10213312;28;20086;-56
2023/11/01 13:28:13;;;;;;;1.52;0.30;;;;;;;16.74;57.86;98877.78;10212832;28;20097;-58
2023/11/01 13:33:15;;;;;;;2.53;1.02;;;;;;;16.66;58.04;98870.69;10217305;28;20058;-58
2023/11/01 13:38:16;;;;;;;1.73;0.60;;;;;;;16.65;59.47;98873.56;10215383;28;20225;-61
2023/11/01 13:43:18;;;;;;;2.00;0.75;;;;;;;16.58;59.08;98869.00;10218832;28;20070;-58
2023/11/01 13:48:21;;;;;;;3.35;1.10;;;;;;;16.57;59.17;98875.41;10213139;28;20070;-57
2023/11/01 13:53:23;;;;;;;3.85;0.73;;;;;;;16.56;60.27;98862.19;10212446;28;20613;-59
2023/11/01 13:58:26;;;;;;;2.85;0.60;;;;;;;16.36;59.86;98843.22;10209840;28;20051;-63
2023/11/01 14:03:28;;;;;;;1.58;0.50;;;;;;;16.43;60.39;98838.72;10197448;28;20065;-59
2023/11/01 14:08:30;;;;;;;4.40;1.15;;;;;;;16.49;60.80;98843.31;10206630;28;20066;-58
2023/11/01 14:13:34;;;;;;;2.72;0.60;;;;;;;16.31;61.44;98821.50;10209631;28;20165;-58
2023/11/01 14:18:41;;;;;;;1.55;0.57;;;;;;;16.31;62.17;98837.63;10204382;28;20610;-58
2023/11/01 14:23:44;;;;;;;2.83;0.68;;;;;;;16.28;62.64;98829.94;10208635;28;20146;-60
2023/11/01 14:28:48;;;;;;;4.07;1.00;;;;;;;16.29;63.02;98823.53;10209847;28;20054;-59
2023/11/01 14:33:49;;;;;;;3.85;0.50;;;;;;;16.20;62.92;98821.00;10184043;28;20051;-59
2023/11/01 14:38:53;;;;;;;2.38;0.52;;;;;;;16.13;63.23;98812.06;10210092;28;20099;-57
2023/11/01 14:43:54;;;;;;;3.67;0.73;;;;;;;16.02;62.84;98809.94;10205113;28;20069;-57
2023/11/01 14:49:00;;;;;;;5.07;0.77;;;;;;;15.96;63.81;98800.81;10189157;28;20170;-57
2023/11/01 14:54:03;;;;;;;2.03;0.80;;;;;;;15.96;63.85;98798.13;10179333;28;20712;-59
2023/11/01 14:59:05;;;;;;;3.35;1.10;;;;;;;15.92;63.81;98787.97;10200498;28;20077;-62
2023/11/01 15:04:06;;;;;;;1.33;0.85;;;;;;;15.87;62.92;98775.94;10212311;28;20046;-59
2023/11/01 15:09:08;;;;;;;1.35;0.50;;;;;;;15.89;63.41;98768.53;10199538;28;20042;-57
2023/11/01 15:14:10;;;;;;;3.75;0.90;;;;;;;15.86;63.51;98776.97;10206072;28;21198;-57
2023/11/01 15:19:12;;;;;;;3.47;0.73;;;;;;;15.79;63.56;98773.41;10196256;28;20058;-60
2023/11/01 15:24:15;;;;;;;3.40;0.57;;;;;;;15.86;64.47;98770.78;10199816;28;20696;-56
2023/11/01 15:29:16;;;;;;;4.97;0.90;;;;;;;15.85;63.87;98772.66;10199586;28;20062;-57
2023/11/01 15:34:18;;;;;;;1.70;0.50;;;;;;;15.78;63.88;98769.06;10206446;28;20054;-60
2023/11/01 15:39:19;;;;;;;2.22;0.70;;;;;;;15.72;63.30;98761.78;10217420;28;20528;-59
2023/11/01 15:44:21;;;;;;;2.20;0.40;;;;;;;15.68;63.65;98755.13;10210212;28;20054;-60
2023/11/01 15:49:23;;;;;;;2.97;0.77;;;;;;;15.68;64.33;98749.75;10190285;28;20080;-60
2023/11/01 15:54:24;;;;;;;1.88;0.73;;;;;;;15.67;63.00;98748.09;10201407;28;20063;-59
2023/11/01 15:59:26;;;;;;;0.70;0.30;;;;;;;15.60;63.61;98757.94;10208067;28;20082;-59
2023/11/01 16:04:28;;;;;;;7.07;0.80;;;;;;;15.50;63.88;98759.09;10183193;28;20059;-59
2023/11/01 16:09:34;;;;;;;3.08;0.98;;;;;;;15.49;64.07;98752.06;10190517;28;20074;-59
2023/11/01 16:14:35;;;;;;;4.18;1.00;;;;;;;15.43;64.30;98747.47;10206540;28;20503;-58
2023/11/01 16:19:37;;;;;;;5.13;1.27;;;;;;;15.41;64.98;98748.69;10205419;28;20098;-60
2023/11/01 16:24:40;;;;;;;4.85;1.50;;;;;;;15.41;65.63;98757.56;10191441;28;20110;-59
2023/11/01 16:29:43;;;;;;;3.53;1.27;;;;;;;15.39;65.94;98738.16;10207489;28;20188;-58
2023/11/01 16:34:45;;;;;;;3.35;1.00;;;;;;;15.43;65.28;98752.00;10179665;28;20125;-61
2023/11/01 16:39:47;;;;;;;3.95;0.90;;;;;;;15.38;65.79;98750.72;10171552;28;20055;-58
2023/11/01 16:44:48;;;;;;;4.15;1.13;;;;;;;15.32;65.68;98738.06;10204780;28;20050;-59
2023/11/01 16:49:52;;;;;;;3.60;0.70;;;;;;;15.34;65.29;98756.66;10212057;28;20118;-58
2023/11/01 16:54:54;;;;;;;3.13;1.20;;;;;;;15.24;65.55;98743.56;10214618;28;20082;-58
2023/11/01 16:59:55;;;;;;;2.38;1.05;;;;;;;15.19;66.11;98730.75;10210503;28;20371;-59
2023/11/01 17:04:57;;;;;;;3.75;1.05;;;;;;;15.19;66.54;98732.59;10214966;28;20459;-59
2023/11/01 17:09:59;;;;;;;3.35;1.27;;;;;;;15.13;65.99;98734.19;10213243;28;20050;-59
2023/11/01 17:15:00;;;;;;;2.88;1.10;;;;;;;15.06;66.40;98733.28;10201504;28;20055;-58
2023/11/01 17:20:03;;;;;;;3.85;1.38;;;;;;;15.05;66.55;98720.91;10213679;28;20133;-59
2023/11/01 17:25:31;;;;;;;3.58;1.15;;;;;;;15.06;66.12;98722.56;10208239;28;20070;-59
2023/11/01 17:30:32;;;;;;;2.28;0.82;;;;;;;15.08;65.69;98727.75;10219967;28;20081;-60
2023/11/01 17:35:35;;;;;;;2.00;0.60;;;;;;;15.07;65.35;98726.06;10211553;28;20097;-59
2023/11/01 17:40:39;;;;;;;3.50;1.00;;;;;;;15.06;65.31;98719.88;10202251;28;20160;-60
2023/11/01 17:45:40;;;;;;;2.38;0.82;;;;;;;15.07;65.36;98710.81;10212286;28;20070;-60
2023/11/01 17:50:42;;;;;;;3.00;1.00;;;;;;;15.06;65.39;98714.53;10209793;28;20201;-61
2023/11/01 17:55:43;;;;;;;2.80;0.80;;;;;;;15.08;65.15;98707.13;10215722;28;20117;-60
2023/11/01 18:00:45;;;;;;;2.22;0.80;;;;;;;15.08;64.50;98708.97;10199600;28;20665;-59
2023/11/01 18:05:47;;;;;;;2.83;0.88;;;;;;;15.10;64.67;98710.47;10215474;28;20074;-60
2023/11/01 18:10:52;;;;;;;2.58;0.93;;;;;;;15.09;64.46;98724.06;10219013;28;20051;-60
2023/11/01 18:16:07;;;;;;;5.78;1.00;;;;;;;15.03;64.35;98717.59;10216241;28;20129;-59
2023/11/01 18:21:22;;;;;;;3.38;1.00;;;;;;;15.02;64.99;98723.97;10201915;28;20501;-58
2023/11/01 18:26:25;;;;;;;1.98;0.55;;;;;;;14.99;65.15;98729.69;10197982;28;20133;-59
2023/11/01 18:31:34;;;;;;;0.90;0.57;;;;;;;14.88;65.60;98714.97;10200399;28;20161;-59
2023/11/01 18:36:38;;;;;;;1.58;0.43;;;;;;;14.82;64.69;98724.56;10200946;28;20055;-59
2023/11/01 18:41:41;;;;;;;1.63;0.40;;;;;;;14.63;65.24;98711.78;10212359;28;20059;-59
2023/11/01 18:46:44;;;;;;;1.95;0.40;;;;;;;14.63;64.72;98722.47;10208108;28;20197;-60
2023/11/01 18:51:57;;;;;;;1.05;0.40;;;;;;;14.54;65.02;98715.53;10213808;28;20142;-59
2023/11/01 18:56:59;;;;;;;1.02;0.70;;;;;;;14.46;65.47;98698.56;10209590;28;20051;-60
2023/11/01 19:02:01;;;;;;;2.70;0.43;;;;;;;14.36;65.39;98703.38;10209904;28;20050;-59
2023/11/01 19:07:06;;;;;;;1.13;0.43;;;;;;;14.38;65.56;98722.78;10211651;28;20435;-60
2023/11/01 19:12:12;;;;;;;1.05;0.38;;;;;;;14.22;66.50;98718.41;10211833;28;20134;-60
2023/11/01 19:17:13;;;;;;;1.20;0.35;;;;;;;14.20;66.81;98706.22;10209155;28;20051;-60
2023/11/01 19:22:17;;;;;;;1.65;0.70;;;;;;;14.08;67.38;98687.97;10211322;28;20405;-59
2023/11/01 19:27:19;;;;;;;2.20;0.50;;;;;;;14.17;67.67;98687.88;10223401;28;20520;-60
2023/11/01 19:32:24;;;;;;;1.42;0.35;;;;;;;14.07;67.78;98720.28;10206175;28;20106;-60
2023/11/01 19:37:26;;;;;;;2.55;0.40;;;;;;;14.00;68.10;98704.09;10202117;28;20158;-59
2023/11/01 19:42:32;;;;;;;2.25;0.60;;;;;;;14.10;68.38;98726.06;10203505;28;22440;-59
2023/11/01 19:47:36;;;;;;;1.73;0.30;;;;;;;14.13;68.11;98709.66;10197769;28;20062;-58
2023/11/01 19:52:37;;;;;;;2.28;0.50;;;;;;;13.95;68.08;98717.22;10210677;28;20054;-59
2023/11/01 19:57:39;;;;;;;2.47;0.35;;;;;;;13.96;68.12;98719.69;10211928;28;20062;-59
2023/11/01 20:02:41;;;;;;;1.77;0.57;;;;;;;13.94;68.61;98694.16;10212894;28;20074;-58
2023/11/01 20:07:42;;;;;;;1.40;0.47;;;;;;;13.94;68.46;98686.13;10216819;28;20065;-60
2023/11/01 20:12:45;;;;;;;1.38;0.47;;;;;;;13.85;68.48;98681.88;10214111;28;20051;-60
2023/11/01 20:17:48;;;;;;;0.50;0.20;;;;;;;13.84;68.66;98678.38;10217380;28;20054;-60
2023/11/01 20:22:51;;;;;;;2.67;0.93;;;;;;;13.76;68.76;98681.94;10217888;28;20074;-59
2023/11/01 20:27:52;;;;;;;0.77;0.40;;;;;;;13.73;69.01;98676.97;10200687;28;20111;-60
2023/11/01 20:32:54;;;;;;;1.67;0.47;;;;;;;13.72;69.54;98685.16;10219011;28;20086;-59
2023/11/01 20:37:55;;;;;;;1.02;0.60;;;;;;;13.82;69.70;98690.25;10210734;28;20637;-59
2023/11/01 20:42:57;;;;;;;1.13;0.40;;;;;;;13.71;70.47;98662.94;10218213;28;20261;-59
2023/11/01 20:47:58;;;;;;;1.02;0.28;;;;;;;13.76;70.87;98679.25;10223385;28;20047;-59
2023/11/01 20:53:00;;;;;;;0.88;0.30;;;;;;;13.68;71.63;98689.25;10221796;28;20054;-59
2023/11/01 20:58:06;;;;;;;0.75;0.50;;;;;;;13.71;72.03;98684.34;10207626;28;20758;-60
2023/11/01 21:03:07;;;;;;;0.93;0.40;;;;;;;13.66;72.03;98677.88;10206108;28;20078;-60
2023/11/01 21:08:10;;;;;;;0.52;0.22;;;;;;;13.65;72.85;98663.69;10198390;28;20764;-59
2023/11/01 21:13:11;;;;;;;0.98;0.40;;;;;;;13.65;73.42;98661.00;10232337;28;20046;-59
2023/11/01 21:18:13;;;;;;;1.85;0.40;;;;;;;13.63;73.86;98640.81;10224818;28;20734;-60
2023/11/01 21:23:15;;;;;;;1.38;0.30;;;;;;;13.58;74.31;98644.84;10213984;28;20080;-59
2023/11/01 21:28:17;;;;;;;0.50;0.20;;;;;;;13.64;74.53;98642.47;10203968;28;20201;-60
2023/11/01 21:33:20;;;;;;;1.48;0.75;;;;;;;13.61;74.99;98636.47;10240507;28;20197;-59
2023/11/01 21:38:23;;;;;;;3.60;0.75;;;;;;;13.56;76.12;98614.00;10239219;28;20078;-60
2023/11/01 21:43:26;;;;;;;2.25;0.63;;;;;;;13.46;76.88;98594.72;10227528;28;20047;-60
2023/11/01 21:48:29;;;;;;;1.33;0.52;;;;;;;13.22;78.11;98594.72;10217859;28;20141;-60
2023/11/01 21:53:36;;;;;;;3.28;0.68;;;;;;;13.23;78.49;98592.91;10217000;28;20159;-60
2023/11/01 21:58:38;;;;;;;2.17;1.08;;;;;;;13.21;79.17;98592.22;10237251;28;20158;-60
2023/11/01 22:03:48;;;;;;;1.63;0.70;;;;;;;13.22;79.50;98575.19;10237236;28;20209;-59
2023/11/01 22:09:06;;;;;;;1.33;0.60;;;;;;;13.20;79.94;98571.88;10222261;28;20050;-59
2023/11/01 22:14:26;;;;;;;1.92;0.60;;;;;;;13.08;80.48;98574.97;10211932;28;20046;-59
2023/11/01 22:19:41;;;;;;;1.48;0.50;;;;;;;13.11;80.23;98570.31;10233618;28;20074;-61
2023/11/01 22:24:42;;;;;;;2.53;0.50;;;;;;;13.10;79.71;98564.09;10235816;28;20116;-60
2023/11/01 22:29:46;;;;;;;3.60;0.60;;;;;;;13.12;79.75;98547.91;10237454;28;20728;-63
2023/11/01 22:34:50;;;;;;;1.63;0.68;;;;;;;13.00;80.11;98524.31;10233748;28;20146;-60
2023/11/01 22:39:53;;;;;;;1.70;0.82;;;;;;;13.01;80.13;98530.47;10229549;28;20408;-60
2023/11/01 22:44:54;;;;;;;3.50;0.77;;;;;;;13.03;80.10;98531.97;10247827;28;20055;-60
2023/11/01 22:49:56;;;;;;;2.40;0.50;;;;;;;12.90;80.60;98499.72;10236582;28;20047;-59
2023/11/01 22:54:58;;;;;;;1.60;0.47;;;;;;;12.98;80.74;98512.16;10225579;28;20050;-59
2023/11/01 23:00:00;;;;;;;1.17;0.55;;;;;;;12.98;80.74;98504.94;10228851;28;21066;-59
2023/11/01 23:05:01;;;;;;;2.05;0.60;;;;;;;12.94;80.95;98505.50;10222671;28;20118;-59
2023/11/01 23:10:03;;;;;;;3.38;0.70;;;;;;;13.01;80.76;98479.72;10216612;28;20051;-60
2023/11/01 23:15:05;;;;;;;2.25;0.60;;;;;;;12.91;80.32;98464.00;10234568;28;20050;-58
2023/11/01 23:20:08;;;;;;;6.38;0.75;;;;;;;12.91;80.20;98447.97;10234584;28;20150;-60
2023/11/01 23:25:10;;;;;;;1.27;0.40;;;;;;;12.92;79.87;98457.63;10235191;28;20055;-59